createdAt,value
2022-08-27T00:01:47.708Z,24.10
2022-08-27T00:03:50.016Z,24.09
2022-08-27T00:05:51.637Z,24.08
2022-08-27T00:07:55.381Z,24.07
2022-08-27T00:09:59.932Z,24.07
2022-08-27T00:12:02.252Z,24.06
2022-08-27T00:14:06.149Z,24.05
2022-08-27T00:16:12.468Z,24.05
2022-08-27T00:18:14.542Z,24.02
2022-08-27T00:20:19.976Z,24.01
2022-08-27T00:22:24.540Z,24.00
2022-08-27T00:24:28.856Z,23.99
2022-08-27T00:26:30.917Z,23.99
2022-08-27T00:28:34.212Z,23.99
2022-08-27T00:30:35.854Z,23.97
2022-08-27T00:32:38.797Z,23.97
2022-08-27T00:34:40.772Z,23.96
2022-08-27T00:36:42.649Z,23.94
2022-08-27T00:38:44.427Z,23.94
2022-08-27T00:40:46.789Z,23.93
2022-08-27T00:42:48.947Z,23.91
2022-08-27T00:44:50.640Z,23.92
2022-08-27T00:46:56.649Z,23.91
2022-08-27T00:49:07.928Z,23.89
2022-08-27T00:51:09.714Z,23.87
2022-08-27T00:53:14.712Z,23.86
2022-08-27T00:55:24.895Z,23.85
2022-08-27T00:57:27.639Z,23.85
2022-08-27T00:59:31.028Z,23.85
2022-08-27T01:01:35.900Z,23.82
2022-08-27T01:03:38.570Z,23.82
2022-08-27T01:05:43.672Z,23.83
2022-08-27T01:07:48.614Z,23.81
2022-08-27T01:09:52.357Z,23.81
2022-08-27T01:11:57.445Z,23.79
2022-08-27T01:14:01.099Z,23.80
2022-08-27T01:16:05.315Z,23.79
2022-08-27T01:18:08.895Z,23.80
2022-08-27T01:20:25.473Z,23.78
2022-08-27T01:22:35.183Z,23.77
2022-08-27T01:24:50.004Z,23.76
2022-08-27T01:26:51.785Z,23.76
2022-08-27T01:28:53.474Z,23.75
2022-08-27T01:30:55.026Z,23.76
2022-08-27T01:32:57.880Z,23.76
2022-08-27T01:35:00.919Z,23.76
2022-08-27T01:37:02.609Z,23.76
2022-08-27T01:39:04.457Z,23.75
2022-08-27T01:41:08.473Z,23.74
2022-08-27T01:43:10.327Z,23.75
2022-08-27T01:45:18.074Z,23.75
2022-08-27T01:47:22.234Z,23.75
2022-08-27T01:49:23.857Z,23.75
2022-08-27T01:51:25.437Z,23.73
2022-08-27T01:53:27.282Z,23.73
2022-08-27T01:55:28.730Z,23.74
2022-08-27T01:57:30.920Z,23.74
2022-08-27T01:59:39.362Z,23.73
2022-08-27T02:01:41.722Z,23.73
2022-08-27T02:03:44.771Z,23.72
2022-08-27T02:05:48.162Z,23.73
2022-08-27T02:07:50.577Z,23.73
2022-08-27T02:09:54.629Z,23.72
2022-08-27T02:11:56.293Z,23.70
2022-08-27T02:13:58.066Z,23.71
2022-08-27T02:16:00.196Z,23.72
2022-08-27T02:18:03.172Z,23.71
2022-08-27T02:20:07.133Z,23.70
2022-08-27T02:22:08.636Z,23.70
2022-08-27T02:24:10.323Z,23.70
2022-08-27T02:26:13.695Z,23.70
2022-08-27T02:28:19.938Z,23.69
2022-08-27T02:30:24.233Z,23.69
2022-08-27T02:32:32.019Z,23.69
2022-08-27T02:34:34.481Z,23.69
2022-08-27T02:36:38.791Z,23.68
2022-08-27T02:38:40.965Z,23.69
2022-08-27T02:40:46.848Z,23.69
2022-08-27T02:42:49.002Z,23.68
2022-08-27T02:44:50.820Z,23.67
2022-08-27T02:46:53.790Z,23.68
2022-08-27T02:48:56.120Z,23.67
2022-08-27T02:50:57.675Z,23.66
2022-08-27T02:53:02.035Z,23.66
2022-08-27T02:55:05.537Z,23.65
2022-08-27T02:57:07.911Z,23.66
2022-08-27T02:59:09.594Z,23.65
2022-08-27T03:01:13.768Z,23.64
2022-08-27T03:03:15.683Z,23.64
2022-08-27T03:05:18.952Z,23.64
2022-08-27T03:07:23.443Z,23.62
2022-08-27T03:09:25.458Z,23.63
2022-08-27T03:11:27.487Z,23.62
2022-08-27T03:13:31.702Z,23.59
2022-08-27T03:15:33.459Z,23.60
2022-08-27T03:17:54.398Z,23.60
2022-08-27T03:19:56.003Z,23.57
2022-08-27T03:21:57.547Z,23.56
2022-08-27T03:24:09.507Z,23.56
2022-08-27T03:26:13.485Z,23.55
2022-08-27T03:28:22.896Z,23.53
2022-08-27T03:30:25.329Z,23.52
2022-08-27T03:32:27.557Z,23.53
2022-08-27T03:34:29.141Z,23.52
2022-08-27T03:36:31.566Z,23.52
2022-08-27T03:38:34.435Z,23.52
2022-08-27T03:40:36.508Z,23.50
2022-08-27T03:42:38.994Z,23.51
2022-08-27T03:44:40.758Z,23.49
2022-08-27T03:46:42.696Z,23.48
2022-08-27T03:48:44.333Z,23.46
2022-08-27T03:50:48.595Z,23.46
2022-08-27T03:52:50.138Z,23.46
2022-08-27T03:54:51.730Z,23.45
2022-08-27T03:56:53.222Z,23.44
2022-08-27T03:58:55.071Z,23.44
2022-08-27T04:00:57.023Z,23.43
2022-08-27T04:02:58.718Z,23.42
2022-08-27T04:05:00.446Z,23.42
2022-08-27T04:07:02.160Z,23.42
2022-08-27T04:09:05.134Z,23.41
2022-08-27T04:11:07.810Z,23.41
2022-08-27T04:13:09.468Z,23.39
2022-08-27T04:15:13.067Z,23.38
2022-08-27T04:17:14.811Z,23.38
2022-08-27T04:19:16.371Z,23.38
2022-08-27T04:21:18.029Z,23.36
2022-08-27T04:23:20.385Z,23.36
2022-08-27T04:25:22.029Z,23.36
2022-08-27T04:27:25.677Z,23.36
2022-08-27T04:29:27.416Z,23.35
2022-08-27T04:31:29.495Z,23.35
2022-08-27T04:33:33.998Z,23.35
2022-08-27T04:35:35.870Z,23.34
2022-08-27T04:37:37.611Z,23.34
2022-08-27T04:39:39.401Z,23.32
2022-08-27T04:41:48.592Z,23.33
2022-08-27T04:43:59.129Z,23.33
2022-08-27T04:46:00.896Z,23.32
2022-08-27T04:48:02.929Z,23.34
2022-08-27T04:50:07.617Z,23.33
2022-08-27T04:52:10.081Z,23.33
2022-08-27T04:54:11.852Z,23.36
2022-08-27T04:56:15.706Z,23.35
2022-08-27T04:58:20.613Z,23.35
2022-08-27T05:00:22.802Z,23.36
2022-08-27T05:02:27.290Z,23.35
2022-08-27T05:04:30.374Z,23.36
2022-08-27T05:06:33.052Z,23.36
2022-08-27T05:08:37.370Z,23.38
2022-08-27T05:10:43.757Z,23.38
2022-08-27T05:12:45.419Z,23.38
2022-08-27T05:14:46.979Z,23.40
2022-08-27T05:16:48.477Z,23.41
2022-08-27T05:18:52.119Z,23.42
2022-08-27T05:20:54.309Z,23.44
2022-08-27T05:22:56.782Z,23.46
2022-08-27T05:24:59.482Z,23.45
2022-08-27T05:27:00.979Z,23.47
2022-08-27T05:29:05.423Z,23.48
2022-08-27T05:31:10.671Z,23.50
2022-08-27T05:33:17.364Z,23.50
2022-08-27T05:35:19.745Z,23.51
2022-08-27T05:37:22.124Z,23.52
2022-08-27T05:39:23.863Z,23.53
2022-08-27T05:41:34.078Z,23.56
2022-08-27T05:43:38.145Z,23.57
2022-08-27T05:45:45.925Z,23.58
2022-08-27T05:47:48.019Z,23.58
2022-08-27T05:49:53.536Z,23.59
2022-08-27T05:52:00.953Z,23.61
2022-08-27T05:54:14.764Z,23.62
2022-08-27T05:56:21.544Z,23.64
2022-08-27T05:58:41.353Z,23.66
2022-08-27T06:01:04.204Z,23.65
2022-08-27T06:03:09.880Z,23.67
2022-08-27T06:05:11.618Z,23.69
2022-08-27T06:07:16.695Z,23.69
2022-08-27T06:09:23.024Z,23.69
2022-08-27T06:11:24.705Z,23.70
2022-08-27T06:13:26.247Z,23.73
2022-08-27T06:15:27.801Z,23.73
2022-08-27T06:17:29.648Z,23.74
2022-08-27T06:19:31.281Z,23.74
2022-08-27T06:21:33.560Z,23.77
2022-08-27T06:23:38.363Z,23.77
2022-08-27T06:25:40.883Z,23.78
2022-08-27T06:27:42.454Z,23.80
2022-08-27T06:29:44.725Z,23.80
2022-08-27T06:31:46.409Z,23.80
2022-08-27T06:33:50.735Z,23.81
2022-08-27T06:35:52.504Z,23.80
2022-08-27T06:37:54.207Z,23.83
2022-08-27T06:39:58.762Z,23.83
2022-08-27T06:42:00.412Z,23.85
2022-08-27T06:44:08.561Z,23.86
2022-08-27T06:46:13.516Z,23.87
2022-08-27T06:48:16.446Z,23.88
2022-08-27T06:50:22.322Z,23.89
2022-08-27T06:52:27.219Z,23.91
2022-08-27T06:54:28.762Z,23.92
2022-08-27T06:56:33.807Z,23.92
2022-08-27T06:58:36.094Z,23.94
2022-08-27T07:00:38.346Z,23.94
2022-08-27T07:02:40.017Z,23.95
2022-08-27T07:04:41.607Z,23.95
2022-08-27T07:06:43.337Z,23.98
2022-08-27T07:08:53.725Z,23.97
2022-08-27T07:10:57.687Z,23.99
2022-08-27T07:12:59.747Z,23.97
2022-08-27T07:15:01.509Z,23.97
2022-08-27T07:17:03.831Z,23.99
2022-08-27T07:19:08.666Z,24.00
2022-08-27T07:21:12.914Z,24.02
2022-08-27T07:23:16.978Z,24.05
2022-08-27T07:25:20.345Z,24.06
2022-08-27T07:27:22.542Z,24.08
2022-08-27T07:29:24.413Z,24.09
2022-08-27T07:31:26.264Z,24.11
2022-08-27T07:33:27.900Z,24.13
2022-08-27T07:35:29.626Z,24.14
2022-08-27T07:37:35.137Z,24.16
2022-08-27T07:39:37.123Z,24.18
2022-08-27T07:41:58.891Z,24.21
2022-08-27T07:44:19.678Z,24.22
2022-08-27T07:46:22.339Z,24.24
2022-08-27T07:48:25.238Z,24.27
2022-08-27T07:50:26.885Z,24.29
2022-08-27T07:52:28.716Z,24.28
2022-08-27T07:54:30.435Z,24.32
2022-08-27T07:56:32.134Z,24.36
2022-08-27T07:58:34.694Z,24.37
2022-08-27T08:00:36.735Z,24.40
2022-08-27T08:02:44.959Z,24.42
2022-08-27T08:04:47.287Z,24.43
2022-08-27T08:06:49.251Z,24.46
2022-08-27T08:08:50.850Z,24.49
2022-08-27T08:10:52.414Z,24.50
2022-08-27T08:12:54.037Z,24.53
2022-08-27T08:14:58.573Z,24.56
2022-08-27T08:17:01.529Z,24.59
2022-08-27T08:19:03.320Z,24.61
2022-08-27T08:21:08.346Z,24.64
2022-08-27T08:23:10.578Z,24.68
2022-08-27T08:25:14.038Z,24.72
2022-08-27T08:27:15.870Z,24.74
2022-08-27T08:29:18.331Z,24.78
2022-08-27T08:31:21.045Z,24.81
2022-08-27T08:33:23.172Z,24.84
2022-08-27T08:35:25.101Z,24.87
2022-08-27T08:37:27.445Z,24.90
2022-08-27T08:39:32.328Z,24.94
2022-08-27T08:42:06.205Z,24.94
2022-08-27T08:44:40.370Z,24.97
2022-08-27T08:47:14.431Z,24.99
2022-08-27T08:49:52.104Z,25.01
2022-08-27T08:51:57.294Z,25.05
2022-08-27T08:54:04.747Z,25.07
2022-08-27T08:56:12.496Z,25.10
2022-08-27T08:58:35.373Z,25.13
2022-08-27T09:00:40.453Z,25.15
2022-08-27T09:02:50.626Z,25.18
2022-08-27T09:04:52.186Z,25.21
2022-08-27T09:07:10.873Z,25.24
2022-08-27T09:09:47.384Z,25.26
2022-08-27T09:12:03.969Z,25.28
2022-08-27T09:14:34.303Z,25.30
2022-08-27T09:16:38.604Z,25.32
2022-08-27T09:18:42.084Z,25.34
2022-08-27T09:20:49.370Z,25.37
2022-08-27T09:23:01.999Z,25.37
2022-08-27T09:25:20.265Z,25.36
2022-08-27T09:27:23.837Z,25.37
2022-08-27T09:29:28.718Z,25.37
2022-08-27T09:31:30.214Z,25.39
2022-08-27T09:33:54.815Z,25.39
2022-08-27T09:36:23.545Z,25.40
2022-08-27T09:38:35.150Z,25.40
2022-08-27T09:40:48.957Z,25.40
2022-08-27T09:42:56.282Z,25.41
2022-08-27T09:45:05.697Z,25.43
2022-08-27T09:47:18.445Z,25.44
2022-08-27T09:49:20.289Z,25.46
2022-08-27T09:51:27.212Z,25.48
2022-08-27T09:53:31.726Z,25.51
2022-08-27T09:55:39.585Z,25.51
2022-08-27T09:57:42.511Z,25.54
2022-08-27T09:59:53.786Z,25.55
2022-08-27T10:01:58.755Z,25.57
2022-08-27T10:04:15.434Z,25.58
2022-08-27T10:06:28.470Z,25.59
2022-08-27T10:08:47.123Z,25.61
2022-08-27T10:11:15.051Z,25.62
2022-08-27T10:13:37.756Z,25.62
2022-08-27T10:16:21.155Z,25.62
2022-08-27T10:19:00.847Z,25.65
2022-08-27T10:21:12.254Z,25.66
2022-08-27T10:24:11.204Z,25.69
2022-08-27T10:26:20.620Z,25.72
2022-08-27T10:28:54.139Z,25.75
2022-08-27T10:31:08.386Z,25.80
2022-08-27T10:33:32.430Z,25.84
2022-08-27T10:35:55.029Z,25.86
2022-08-27T10:38:13.886Z,25.91
2022-08-27T10:40:40.483Z,25.97
2022-08-27T10:42:57.535Z,26.03
2022-08-27T10:45:42.815Z,26.08
2022-08-27T10:47:55.392Z,26.15
2022-08-27T10:49:59.781Z,26.23
2022-08-27T10:52:19.695Z,26.28
2022-08-27T10:54:40.210Z,26.35
2022-08-27T10:57:26.176Z,26.41
2022-08-27T10:59:26.734Z,26.47
2022-08-27T11:02:00.216Z,26.52
2022-08-27T11:04:08.533Z,26.54
2022-08-27T11:06:36.273Z,26.58
2022-08-27T11:08:55.615Z,26.61
2022-08-27T11:11:35.095Z,26.62
2022-08-27T11:13:41.240Z,26.64
2022-08-27T11:15:47.704Z,26.66
2022-08-27T11:18:05.844Z,26.65
2022-08-27T11:20:16.155Z,26.66
2022-08-27T11:22:30.132Z,26.67
2022-08-27T11:24:39.423Z,26.70
2022-08-27T11:26:42.854Z,26.73
2022-08-27T11:28:47.300Z,26.79
2022-08-27T11:31:03.931Z,26.84
2022-08-27T11:33:20.558Z,26.90
2022-08-27T11:35:34.702Z,26.96
2022-08-27T11:37:45.370Z,27.01
2022-08-27T11:40:14.233Z,27.06
2022-08-27T11:42:42.134Z,27.12
2022-08-27T11:44:48.704Z,27.16
2022-08-27T11:46:56.314Z,27.18
2022-08-27T11:49:04.465Z,27.19
2022-08-27T11:51:32.470Z,27.20
2022-08-27T11:53:47.688Z,27.22
2022-08-27T11:55:55.152Z,27.23
2022-08-27T11:58:30.576Z,27.24
2022-08-27T12:00:42.395Z,27.29
2022-08-27T12:02:45.024Z,27.34
2022-08-27T12:04:47.362Z,27.38
2022-08-27T12:07:01.630Z,27.41
2022-08-27T12:09:15.883Z,27.44
2022-08-27T12:11:33.004Z,27.48
2022-08-27T12:13:42.739Z,27.51
2022-08-27T12:15:59.609Z,27.56
2022-08-27T12:18:26.512Z,27.61
2022-08-27T12:20:47.576Z,27.63
2022-08-27T12:23:17.397Z,27.68
2022-08-27T12:25:25.653Z,27.71
2022-08-27T12:27:37.143Z,27.75
2022-08-27T12:29:48.014Z,27.80
2022-08-27T12:31:54.466Z,27.84
2022-08-27T12:33:58.596Z,27.87
2022-08-27T12:36:15.454Z,27.91
2022-08-27T12:38:42.653Z,27.94
2022-08-27T12:40:52.426Z,27.98
2022-08-27T12:43:10.734Z,28.02
2022-08-27T12:45:20.742Z,28.04
2022-08-27T12:47:23.401Z,28.08
2022-08-27T12:49:38.863Z,28.12
2022-08-27T12:51:45.214Z,28.18
2022-08-27T12:53:50.378Z,28.21
2022-08-27T12:56:11.534Z,28.24
2022-08-27T12:58:21.924Z,28.30
2022-08-27T13:00:26.864Z,28.34
2022-08-27T13:02:50.919Z,28.37
2022-08-27T13:04:53.959Z,28.43
2022-08-27T13:06:55.875Z,28.47
2022-08-27T13:08:59.998Z,28.51
2022-08-27T13:11:22.263Z,28.54
2022-08-27T13:13:25.392Z,28.58
2022-08-27T13:15:27.257Z,28.63
2022-08-27T13:17:29.119Z,28.67
2022-08-27T13:19:34.411Z,28.71
2022-08-27T13:21:36.279Z,28.75
2022-08-27T13:23:45.548Z,28.81
2022-08-27T13:26:13.908Z,28.85
2022-08-27T13:28:19.936Z,28.91
2022-08-27T13:30:36.059Z,28.98
2022-08-27T13:32:39.046Z,29.03
2022-08-27T13:34:41.651Z,29.10
2022-08-27T13:37:18.801Z,29.17
2022-08-27T13:39:20.425Z,29.26
2022-08-27T13:41:32.136Z,29.28
2022-08-27T13:43:42.444Z,29.32
2022-08-27T13:45:49.885Z,29.35
2022-08-27T13:47:53.598Z,29.39
2022-08-27T13:50:04.733Z,29.41
2022-08-27T13:52:27.773Z,29.43
2022-08-27T13:54:30.864Z,29.46
2022-08-27T13:56:36.664Z,29.51
2022-08-27T13:58:38.262Z,29.55
2022-08-27T14:00:41.081Z,29.57
2022-08-27T14:02:43.430Z,29.60
2022-08-27T14:05:11.292Z,29.60
2022-08-27T14:07:20.318Z,29.62
2022-08-27T14:09:29.037Z,29.61
2022-08-27T14:11:31.564Z,29.64
2022-08-27T14:13:46.983Z,29.62
2022-08-27T14:15:57.468Z,29.65
2022-08-27T14:18:00.212Z,29.72
2022-08-27T14:20:04.885Z,29.76
2022-08-27T14:22:07.871Z,29.79
2022-08-27T14:24:09.623Z,29.85
2022-08-27T14:26:11.226Z,29.88
2022-08-27T14:28:12.976Z,29.92
2022-08-27T14:30:18.441Z,29.95
2022-08-27T14:32:21.080Z,29.97
2022-08-27T14:34:22.623Z,30.00
2022-08-27T14:36:27.338Z,30.02
2022-08-27T14:38:32.121Z,30.04
2022-08-27T14:40:34.317Z,30.04
2022-08-27T14:42:36.971Z,30.04
2022-08-27T14:44:39.064Z,30.01
2022-08-27T14:46:41.418Z,30.01
2022-08-27T14:48:51.457Z,30.00
2022-08-27T14:50:53.826Z,29.98
2022-08-27T14:52:55.356Z,29.97
2022-08-27T14:54:57.035Z,29.96
2022-08-27T14:56:59.002Z,29.97
2022-08-27T14:59:00.553Z,29.95
2022-08-27T15:01:03.997Z,29.92
2022-08-27T15:03:07.797Z,29.90
2022-08-27T15:05:11.790Z,29.90
2022-08-27T15:07:14.385Z,29.89
2022-08-27T15:09:16.047Z,29.85
2022-08-27T15:11:23.589Z,29.83
2022-08-27T15:13:25.131Z,29.82
2022-08-27T15:15:26.994Z,29.81
2022-08-27T15:17:33.423Z,29.80
2022-08-27T15:19:36.720Z,29.81
2022-08-27T15:21:40.464Z,29.82
2022-08-27T15:23:43.211Z,29.82
2022-08-27T15:25:46.071Z,29.84
2022-08-27T15:27:48.108Z,29.85
2022-08-27T15:29:50.245Z,29.85
2022-08-27T15:31:52.050Z,29.83
2022-08-27T15:33:53.776Z,29.83
2022-08-27T15:35:55.559Z,29.80
2022-08-27T15:37:58.385Z,29.79
2022-08-27T15:40:03.302Z,29.78
2022-08-27T15:42:07.214Z,29.77
2022-08-27T15:44:09.224Z,29.76
2022-08-27T15:46:10.870Z,29.76
2022-08-27T15:48:12.632Z,29.76
2022-08-27T15:50:14.500Z,29.72
2022-08-27T15:52:18.890Z,29.72
2022-08-27T15:54:20.573Z,29.71
2022-08-27T15:56:23.535Z,29.70
2022-08-27T15:58:29.038Z,29.69
2022-08-27T16:00:34.340Z,29.66
2022-08-27T16:02:43.853Z,29.64
2022-08-27T16:04:49.075Z,29.64
2022-08-27T16:06:50.973Z,29.61
2022-08-27T16:08:53.227Z,29.60
2022-08-27T16:10:56.089Z,29.57
2022-08-27T16:12:57.945Z,29.57
2022-08-27T16:15:01.031Z,29.54
2022-08-27T16:17:02.967Z,29.52
2022-08-27T16:19:06.607Z,29.48
2022-08-27T16:21:09.904Z,29.47
2022-08-27T16:23:11.437Z,29.46
2022-08-27T16:25:17.820Z,29.41
2022-08-27T16:27:20.540Z,29.42
2022-08-27T16:29:22.037Z,29.40
2022-08-27T16:31:24.075Z,29.37
2022-08-27T16:33:25.714Z,29.35
2022-08-27T16:35:27.333Z,29.32
2022-08-27T16:37:29.115Z,29.30
2022-08-27T16:39:34.633Z,29.26
2022-08-27T16:41:39.224Z,29.23
2022-08-27T16:43:41.762Z,29.20
2022-08-27T16:45:43.756Z,29.18
2022-08-27T16:48:05.841Z,29.15
2022-08-27T16:50:26.653Z,29.10
2022-08-27T16:52:29.514Z,29.07
2022-08-27T16:54:31.565Z,29.04
2022-08-27T16:56:37.084Z,29.01
2022-08-27T16:58:40.115Z,28.96
2022-08-27T17:00:43.494Z,28.90
2022-08-27T17:02:50.168Z,28.87
2022-08-27T17:04:58.495Z,28.82
2022-08-27T17:07:13.886Z,28.78
2022-08-27T17:09:15.482Z,28.73
2022-08-27T17:11:23.605Z,28.68
2022-08-27T17:13:29.269Z,28.65
2022-08-27T17:15:31.063Z,28.59
2022-08-27T17:17:32.768Z,28.53
2022-08-27T17:19:34.829Z,28.49
2022-08-27T17:21:37.397Z,28.44
2022-08-27T17:23:42.015Z,28.40
2022-08-27T17:25:43.794Z,28.36
2022-08-27T17:27:45.392Z,28.31
2022-08-27T17:29:47.057Z,28.27
2022-08-27T17:31:48.744Z,28.23
2022-08-27T17:33:52.613Z,28.19
2022-08-27T17:35:54.373Z,28.14
2022-08-27T17:37:56.009Z,28.10
2022-08-27T17:39:58.601Z,28.03
2022-08-27T17:42:00.637Z,27.98
2022-08-27T17:44:13.259Z,27.93
2022-08-27T17:46:15.858Z,27.89
2022-08-27T17:48:19.253Z,27.84
2022-08-27T17:50:21.216Z,27.79
2022-08-27T17:52:23.037Z,27.73
2022-08-27T17:54:35.984Z,27.70
2022-08-27T17:56:40.135Z,27.63
2022-08-27T17:58:41.967Z,27.60
2022-08-27T18:00:44.932Z,27.56
2022-08-27T18:02:49.172Z,27.53
2022-08-27T18:04:51.449Z,27.48
2022-08-27T18:06:53.174Z,27.43
2022-08-27T18:08:55.098Z,27.40
2022-08-27T18:10:56.742Z,27.37
2022-08-27T18:13:01.401Z,27.31
2022-08-27T18:15:09.736Z,27.26
2022-08-27T18:17:16.026Z,27.25
2022-08-27T18:19:17.711Z,27.21
2022-08-27T18:21:25.120Z,27.16
2022-08-27T18:23:27.560Z,27.12
2022-08-27T18:25:35.382Z,27.10
2022-08-27T18:27:40.166Z,27.06
2022-08-27T18:29:42.190Z,27.03
2022-08-27T18:31:44.184Z,26.99
2022-08-27T18:33:46.779Z,26.96
2022-08-27T18:35:48.708Z,26.93
2022-08-27T18:37:54.460Z,26.90
2022-08-27T18:39:56.228Z,26.86
2022-08-27T18:41:58.003Z,26.83
2022-08-27T18:44:00.674Z,26.80
2022-08-27T18:46:04.257Z,26.77
2022-08-27T18:48:16.170Z,26.76
2022-08-27T18:50:19.027Z,26.73
2022-08-27T18:52:22.500Z,26.74
2022-08-27T18:54:27.230Z,26.70
2022-08-27T18:56:29.152Z,26.69
2022-08-27T18:58:30.799Z,26.64
2022-08-27T19:00:32.764Z,26.62
2022-08-27T19:02:35.178Z,26.60
2022-08-27T19:04:37.385Z,26.57
2022-08-27T19:06:39.557Z,26.55
2022-08-27T19:08:42.207Z,26.51
2022-08-27T19:10:43.919Z,26.47
2022-08-27T19:12:47.560Z,26.44
2022-08-27T19:14:49.077Z,26.41
2022-08-27T19:16:55.816Z,26.38
2022-08-27T19:18:57.590Z,26.35
2022-08-27T19:20:59.669Z,26.33
2022-08-27T19:23:01.616Z,26.30
2022-08-27T19:25:05.004Z,26.23
2022-08-27T19:27:06.643Z,26.17
2022-08-27T19:29:13.764Z,26.15
2022-08-27T19:31:16.922Z,26.12
2022-08-27T19:33:18.907Z,26.09
2022-08-27T19:35:20.762Z,26.07
2022-08-27T19:37:27.110Z,26.06
2022-08-27T19:39:28.706Z,26.06
2022-08-27T19:41:31.326Z,26.04
2022-08-27T19:43:32.929Z,26.03
2022-08-27T19:45:36.019Z,26.01
2022-08-27T19:47:42.329Z,25.99
2022-08-27T19:49:49.599Z,25.99
2022-08-27T19:51:51.764Z,25.97
2022-08-27T19:53:53.414Z,25.95
2022-08-27T19:55:55.238Z,25.95
2022-08-27T19:57:57.223Z,25.95
2022-08-27T19:59:59.294Z,25.94
2022-08-27T20:02:04.681Z,25.93
2022-08-27T20:04:09.051Z,25.92
2022-08-27T20:06:11.031Z,25.90
2022-08-27T20:08:13.030Z,25.91
2022-08-27T20:10:16.811Z,25.89
2022-08-27T20:12:18.377Z,25.90
2022-08-27T20:14:20.809Z,25.88
2022-08-27T20:16:22.556Z,25.88
2022-08-27T20:18:24.310Z,25.85
2022-08-27T20:20:26.453Z,25.84
2022-08-27T20:22:28.080Z,25.83
2022-08-27T20:24:29.829Z,25.81
2022-08-27T20:26:33.054Z,25.81
2022-08-27T20:28:39.427Z,25.78
2022-08-27T20:30:41.493Z,25.77
2022-08-27T20:32:49.735Z,25.78
2022-08-27T20:34:51.606Z,25.79
2022-08-27T20:36:56.708Z,25.77
2022-08-27T20:38:59.147Z,25.78
2022-08-27T20:41:03.188Z,25.77
2022-08-27T20:43:04.794Z,25.74
2022-08-27T20:45:11.761Z,25.72
2022-08-27T20:47:18.375Z,25.69
2022-08-27T20:49:21.595Z,25.67
2022-08-27T20:51:25.189Z,25.66
2022-08-27T20:53:26.916Z,25.64
2022-08-27T20:55:28.944Z,25.63
2022-08-27T20:57:31.225Z,25.61
2022-08-27T20:59:54.611Z,25.59
2022-08-27T21:01:58.157Z,25.57
2022-08-27T21:04:03.321Z,25.53
2022-08-27T21:06:08.584Z,25.51
2022-08-27T21:08:11.947Z,25.48
2022-08-27T21:10:13.598Z,25.47
2022-08-27T21:12:15.256Z,25.45
2022-08-27T21:14:24.662Z,25.41
2022-08-27T21:16:35.091Z,25.39
2022-08-27T21:18:38.917Z,25.36
2022-08-27T21:20:40.799Z,25.35
2022-08-27T21:22:43.623Z,25.31
2022-08-27T21:24:47.444Z,25.29
2022-08-27T21:26:49.457Z,25.24
2022-08-27T21:28:55.620Z,25.22
2022-08-27T21:30:57.766Z,25.19
2022-08-27T21:32:59.798Z,25.16
2022-08-27T21:35:01.859Z,25.12
2022-08-27T21:37:04.447Z,25.09
2022-08-27T21:39:06.304Z,25.07
2022-08-27T21:41:11.240Z,25.04
2022-08-27T21:43:12.907Z,25.02
2022-08-27T21:45:14.889Z,24.99
2022-08-27T21:47:21.263Z,24.96
2022-08-27T21:49:22.952Z,24.91
2022-08-27T21:51:28.752Z,24.90
2022-08-27T21:53:31.813Z,24.86
2022-08-27T21:55:33.777Z,24.83
2022-08-27T21:57:35.769Z,24.79
2022-08-27T21:59:48.144Z,24.75
2022-08-27T22:01:55.802Z,24.74
2022-08-27T22:04:02.275Z,24.71
2022-08-27T22:06:14.177Z,24.68
2022-08-27T22:08:18.531Z,24.66
2022-08-27T22:10:20.366Z,24.64
2022-08-27T22:12:24.329Z,24.62
2022-08-27T22:14:26.039Z,24.62
2022-08-27T22:16:30.029Z,24.61
2022-08-27T22:18:31.922Z,24.60
2022-08-27T22:20:34.446Z,24.57
2022-08-27T22:22:35.985Z,24.56
2022-08-27T22:24:43.378Z,24.54
2022-08-27T22:26:45.102Z,24.54
2022-08-27T22:28:47.085Z,24.52
2022-08-27T22:30:51.661Z,24.49
2022-08-27T22:32:53.478Z,24.48
2022-08-27T22:34:57.355Z,24.46
2022-08-27T22:36:58.877Z,24.45
2022-08-27T22:39:06.971Z,24.44
2022-08-27T22:41:09.503Z,24.42
2022-08-27T22:43:12.558Z,24.41
2022-08-27T22:45:16.978Z,24.40
2022-08-27T22:47:18.935Z,24.38
2022-08-27T22:49:20.703Z,24.38
2022-08-27T22:51:22.633Z,24.36
2022-08-27T22:53:24.387Z,24.36
2022-08-27T22:55:26.161Z,24.35
2022-08-27T22:57:27.794Z,24.34
2022-08-27T22:59:38.715Z,24.34
2022-08-27T23:01:40.935Z,24.31
2022-08-27T23:03:47.055Z,24.29
2022-08-27T23:05:49.068Z,24.29
2022-08-27T23:07:52.131Z,24.26
2022-08-27T23:09:53.973Z,24.25
2022-08-27T23:11:58.410Z,24.24
2022-08-27T23:14:03.458Z,24.24
2022-08-27T23:16:05.932Z,24.22
2022-08-27T23:18:07.633Z,24.21
2022-08-27T23:20:10.504Z,24.20
2022-08-27T23:22:12.291Z,24.20
2022-08-27T23:24:15.511Z,24.17
2022-08-27T23:26:35.790Z,24.17
2022-08-27T23:28:40.811Z,24.15
2022-08-27T23:30:44.245Z,24.14
2022-08-27T23:32:51.168Z,24.13
2022-08-27T23:34:56.095Z,24.12
2022-08-27T23:36:58.092Z,24.09
2022-08-27T23:39:00.759Z,24.08
2022-08-27T23:41:02.560Z,24.08
2022-08-27T23:43:04.310Z,24.06
2022-08-27T23:45:07.216Z,24.05
2022-08-27T23:47:10.141Z,24.06
2022-08-27T23:49:12.607Z,24.05
2022-08-27T23:51:14.427Z,24.03
2022-08-27T23:53:15.932Z,24.02
2022-08-27T23:55:17.834Z,24.01
2022-08-27T23:57:19.621Z,24.00
2022-08-27T23:59:21.306Z,24.00
